Mr Connor — WDF2688 — position and weather

sailwx.info

Track history (hours):
 
Tides and Currents Weather Stations Pressure Air Temp Water Temp Dewpoint Dewpoint Depression Visibility Wind Speed Wind Dir Waves Ship Positions

Mr Connor

Owner: Marquette Transportation Company Offshore LLC, Jefferson, LA. More information available from US FCC via Universal Licensing System and Coast Guard Vessel Documentation Center.

Last reported at 2018-Feb-20 01:24 UTC. Time now 2018-Feb-20 01:32 UTC.
Position N 32°02' W 080°54'.

Length 20 m; draft 3 m.

Type: Tug. MMSI: 367430750.

Date/timePositionNaut miles runAvg speedWind from/ knotsBaromVisibWave heightAir tempDewpointWater temp
2018-Feb-20 01:24N 32°02' W 080°54'0 0.0
2018-Feb-20 01:00N 32°02' W 080°54'0 0.0
2018-Feb-20 00:24N 32°02' W 080°54'0 0.0
2018-Feb-20 00:00N 32°02' W 080°54'0 0.0
2018-Feb-19 23:24N 32°02' W 080°54'0 0.2
2018-Feb-19 23:00N 32°02' W 080°54'0 0.1
2018-Feb-19 22:30N 32°02' W 080°54'0 0.0
2018-Feb-19 22:00N 32°02' W 080°54'0 0.0
2018-Feb-19 21:24N 32°02' W 080°54'0 0.0
2018-Feb-19 21:00N 32°02' W 080°54'0 0.0
2018-Feb-19 20:24N 32°02' W 080°54'0 0.0
2018-Feb-19 20:00N 32°02' W 080°54'0 0.0
2018-Feb-19 19:30N 32°02' W 080°54'0 0.1
2018-Feb-19 18:57N 32°02' W 080°54'0 0.0
2018-Feb-19 18:27N 32°02' W 080°54'0 0.0
2018-Feb-19 17:57N 32°02' W 080°54'0 0.0
2018-Feb-19 17:27N 32°02' W 080°54'0 0.0
2018-Feb-19 16:57N 32°02' W 080°54'0 0.2
2018-Feb-19 16:27N 32°02' W 080°54'0 0.1
2018-Feb-19 15:57N 32°02' W 080°54'0 0.0
2018-Feb-19 15:27N 32°02' W 080°54'0 0.0
2018-Feb-19 15:00N 32°02' W 080°54'4 7.3
2018-Feb-19 14:30N 32°02' W 080°50'5 9.5
2018-Feb-19 14:00N 31°58' W 080°47'4 9.1
2018-Feb-19 13:30N 31°54' W 080°49'5 9.2
2018-Feb-19 13:00N 31°50' W 080°51'  
2018-Feb-15 16:15N 31°45' W 081°10'2 7.5
2018-Feb-15 16:00N 31°47' W 081°10'3 4.9
2018-Feb-15 15:23N 31°50' W 081°09'3 4.5
2018-Feb-15 14:41N 31°51' W 081°06'1 4.6
2018-Feb-15 14:30N 31°51' W 081°05'3 5.4
2018-Feb-15 14:00N 31°54' W 081°06'2 3.8
2018-Feb-15 13:30N 31°55' W 081°04'3 5.0
2018-Feb-15 12:59N 31°58' W 081°03'2 3.9
2018-Feb-15 12:30N 31°59' W 081°02'2 4.0
2018-Feb-15 12:00N 32°01' W 081°02'2 3.2
2018-Feb-15 11:30N 32°03' W 081°02'2 3.9
2018-Feb-15 11:00N 32°04' W 081°01'3 5.5
2018-Feb-15 10:30N 32°04' W 080°58'2 3.8
2018-Feb-15 10:00N 32°05' W 080°56'2 4.0
2018-Feb-15 09:30N 32°06' W 080°54'2 4.6
2018-Feb-15 09:00N 32°08' W 080°52'3 5.3
2018-Feb-15 08:30N 32°09' W 080°49'2 4.2
2018-Feb-15 07:59N 32°11' W 080°47'3 5.2
2018-Feb-15 07:30N 32°13' W 080°47'4 0.1
2018-Feb-14 03:18N 32°16' W 080°44'2 6.2
2018-Feb-14 02:59N 32°15' W 080°45'3 5.5
2018-Feb-14 02:30N 32°13' W 080°47'3 6.4
2018-Feb-14 02:01N 32°10' W 080°49'4 7.5
2018-Feb-14 01:31N 32°08' W 080°52'3 5.7
2018-Feb-14 01:01N 32°06' W 080°54'3 6.6
2018-Feb-14 00:30N 32°04' W 080°58'3 6.4
2018-Feb-14 00:00N 32°04' W 081°02'3 5.1
2018-Feb-13 23:30N 32°01' W 081°03'2 4.2
2018-Feb-13 22:59N 31°59' W 081°01'2 4.9
2018-Feb-13 22:30N 31°58' W 081°03'3 5.5
2018-Feb-13 22:00N 31°55' W 081°05'3 6.0
2018-Feb-13 21:30N 31°52' W 081°05'3 5.5
2018-Feb-13 21:01N 31°51' W 081°08'3 6.6
2018-Feb-13 20:30N 31°49' W 081°10'  
Track history (hours):
 
Tides and Currents Weather Stations Pressure Air Temp Water Temp Dewpoint Dewpoint Depression Visibility Wind Speed Wind Dir Waves Ship Positions

Mr Connor

Owner: Marquette Transportation Company Offshore LLC, Jefferson, LA. More information available from US FCC via Universal Licensing System and Coast Guard Vessel Documentation Center.

Last reported at 2018-Feb-20 01:24 UTC. Time now 2018-Feb-20 01:32 UTC.
Position N 32°02' W 080°54'.

Length 20 m; draft 3 m.

Type: Tug. MMSI: 367430750.

Date/timePositionNaut miles runAvg speedWind from/ knotsBaromVisibWave heightAir tempDewpointWater temp
2018-Feb-20 01:24N 32°02' W 080°54'0 0.0
2018-Feb-20 01:00N 32°02' W 080°54'0 0.0
2018-Feb-20 00:24N 32°02' W 080°54'0 0.0
2018-Feb-20 00:00N 32°02' W 080°54'0 0.0
2018-Feb-19 23:24N 32°02' W 080°54'0 0.2
2018-Feb-19 23:00N 32°02' W 080°54'0 0.1
2018-Feb-19 22:30N 32°02' W 080°54'0 0.0
2018-Feb-19 22:00N 32°02' W 080°54'0 0.0
2018-Feb-19 21:24N 32°02' W 080°54'0 0.0
2018-Feb-19 21:00N 32°02' W 080°54'0 0.0
2018-Feb-19 20:24N 32°02' W 080°54'0 0.0
2018-Feb-19 20:00N 32°02' W 080°54'0 0.0
2018-Feb-19 19:30N 32°02' W 080°54'0 0.1
2018-Feb-19 18:57N 32°02' W 080°54'0 0.0
2018-Feb-19 18:27N 32°02' W 080°54'0 0.0
2018-Feb-19 17:57N 32°02' W 080°54'0 0.0
2018-Feb-19 17:27N 32°02' W 080°54'0 0.0
2018-Feb-19 16:57N 32°02' W 080°54'0 0.2
2018-Feb-19 16:27N 32°02' W 080°54'0 0.1
2018-Feb-19 15:57N 32°02' W 080°54'0 0.0
2018-Feb-19 15:27N 32°02' W 080°54'0 0.0
2018-Feb-19 15:00N 32°02' W 080°54'4 7.3
2018-Feb-19 14:30N 32°02' W 080°50'5 9.5
2018-Feb-19 14:00N 31°58' W 080°47'4 9.1
2018-Feb-19 13:30N 31°54' W 080°49'5 9.2
2018-Feb-19 13:00N 31°50' W 080°51'  
2018-Feb-15 16:15N 31°45' W 081°10'2 7.5
2018-Feb-15 16:00N 31°47' W 081°10'3 4.9
2018-Feb-15 15:23N 31°50' W 081°09'3 4.5
2018-Feb-15 14:41N 31°51' W 081°06'1 4.6
2018-Feb-15 14:30N 31°51' W 081°05'3 5.4
2018-Feb-15 14:00N 31°54' W 081°06'2 3.8
2018-Feb-15 13:30N 31°55' W 081°04'3 5.0
2018-Feb-15 12:59N 31°58' W 081°03'2 3.9
2018-Feb-15 12:30N 31°59' W 081°02'2 4.0
2018-Feb-15 12:00N 32°01' W 081°02'2 3.2
2018-Feb-15 11:30N 32°03' W 081°02'2 3.9
2018-Feb-15 11:00N 32°04' W 081°01'3 5.5
2018-Feb-15 10:30N 32°04' W 080°58'2 3.8
2018-Feb-15 10:00N 32°05' W 080°56'2 4.0
2018-Feb-15 09:30N 32°06' W 080°54'2 4.6
2018-Feb-15 09:00N 32°08' W 080°52'3 5.3
2018-Feb-15 08:30N 32°09' W 080°49'2 4.2
2018-Feb-15 07:59N 32°11' W 080°47'3 5.2
2018-Feb-15 07:30N 32°13' W 080°47'4 0.1
2018-Feb-14 03:18N 32°16' W 080°44'2 6.2
2018-Feb-14 02:59N 32°15' W 080°45'3 5.5
2018-Feb-14 02:30N 32°13' W 080°47'3 6.4
2018-Feb-14 02:01N 32°10' W 080°49'4 7.5
2018-Feb-14 01:31N 32°08' W 080°52'3 5.7
2018-Feb-14 01:01N 32°06' W 080°54'3 6.6
2018-Feb-14 00:30N 32°04' W 080°58'3 6.4
2018-Feb-14 00:00N 32°04' W 081°02'3 5.1
2018-Feb-13 23:30N 32°01' W 081°03'2 4.2
2018-Feb-13 22:59N 31°59' W 081°01'2 4.9
2018-Feb-13 22:30N 31°58' W 081°03'3 5.5
2018-Feb-13 22:00N 31°55' W 081°05'3 6.0
2018-Feb-13 21:30N 31°52' W 081°05'3 5.5
2018-Feb-13 21:01N 31°51' W 081°08'3 6.6
2018-Feb-13 20:30N 31°49' W 081°10'  

Dump ship's entire track history